sensor_id;sensor_type;location;lat;lon;timestamp;pressure;altitude;pressure_sealevel;temperature;humidity
58644;BME280;44411;49.994;8.660;2022-12-18T00:01:36;101486.19;;;-10.33;91.98
58644;BME280;44411;49.994;8.660;2022-12-18T00:04:04;101472.53;;;-10.38;92.58
58644;BME280;44411;49.994;8.660;2022-12-18T00:06:30;101482.13;;;-10.37;92.30
58644;BME280;44411;49.994;8.660;2022-12-18T00:08:57;101464.75;;;-10.40;91.99
58644;BME280;44411;49.994;8.660;2022-12-18T00:11:25;101470.75;;;-10.38;92.43
58644;BME280;44411;49.994;8.660;2022-12-18T00:13:51;101473.50;;;-10.39;92.58
58644;BME280;44411;49.994;8.660;2022-12-18T00:16:20;101474.44;;;-10.40;92.41
58644;BME280;44411;49.994;8.660;2022-12-18T00:18:50;101474.69;;;-10.32;92.14
58644;BME280;44411;49.994;8.660;2022-12-18T00:21:16;101469.91;;;-10.38;92.36
58644;BME280;44411;49.994;8.660;2022-12-18T00:23:45;101477.56;;;-10.35;91.75
58644;BME280;44411;49.994;8.660;2022-12-18T00:26:16;101481.41;;;-10.39;91.66
58644;BME280;44411;49.994;8.660;2022-12-18T00:28:43;101482.50;;;-10.42;92.27
58644;BME280;44411;49.994;8.660;2022-12-18T00:31:13;101465.81;;;-10.43;92.27
58644;BME280;44411;49.994;8.660;2022-12-18T00:33:40;101476.38;;;-10.43;92.17
58644;BME280;44411;49.994;8.660;2022-12-18T00:36:18;101480.19;;;-10.47;91.79
58644;BME280;44411;49.994;8.660;2022-12-18T00:38:44;101473.00;;;-10.45;91.46
58644;BME280;44411;49.994;8.660;2022-12-18T00:41:11;101469.88;;;-10.50;92.00
58644;BME280;44411;49.994;8.660;2022-12-18T00:43:37;101460.91;;;-10.58;91.57
58644;BME280;44411;49.994;8.660;2022-12-18T00:46:04;101461.50;;;-10.55;92.19
58644;BME280;44411;49.994;8.660;2022-12-18T00:48:29;101460.91;;;-10.58;91.96
58644;BME280;44411;49.994;8.660;2022-12-18T00:50:54;101462.56;;;-10.57;91.59
58644;BME280;44411;49.994;8.660;2022-12-18T00:53:20;101459.94;;;-10.57;92.14
58644;BME280;44411;49.994;8.660;2022-12-18T00:55:46;101468.09;;;-10.49;91.76
58644;BME280;44411;49.994;8.660;2022-12-18T00:58:12;101464.72;;;-10.63;91.98
58644;BME280;44411;49.994;8.660;2022-12-18T01:03:13;101478.06;;;-10.41;91.79
58644;BME280;44411;49.994;8.660;2022-12-18T01:05:40;101476.03;;;-10.49;91.53
58644;BME280;44411;49.994;8.660;2022-12-18T01:08:06;101475.88;;;-10.59;91.07
58644;BME280;44411;49.994;8.660;2022-12-18T01:10:31;101479.09;;;-10.67;91.47
58644;BME280;44411;49.994;8.660;2022-12-18T01:12:57;101481.97;;;-10.70;91.49
58644;BME280;44411;49.994;8.660;2022-12-18T01:15:22;101483.78;;;-10.70;91.57
58644;BME280;44411;49.994;8.660;2022-12-18T01:17:47;101476.47;;;-10.67;91.28
58644;BME280;44411;49.994;8.660;2022-12-18T01:20:13;101484.72;;;-10.71;90.98
58644;BME280;44411;49.994;8.660;2022-12-18T01:22:38;101485.47;;;-10.69;90.97
58644;BME280;44411;49.994;8.660;2022-12-18T01:25:04;101481.38;;;-10.73;91.36
58644;BME280;44411;49.994;8.660;2022-12-18T01:27:31;101497.44;;;-10.76;90.82
58644;BME280;44411;49.994;8.660;2022-12-18T01:29:56;101501.53;;;-10.72;91.16
58644;BME280;44411;49.994;8.660;2022-12-18T01:32:21;101503.78;;;-10.79;91.30
58644;BME280;44411;49.994;8.660;2022-12-18T01:34:47;101494.22;;;-10.80;91.41
58644;BME280;44411;49.994;8.660;2022-12-18T01:37:12;101490.34;;;-10.87;91.15
58644;BME280;44411;49.994;8.660;2022-12-18T01:39:37;101500.03;;;-10.88;90.87
58644;BME280;44411;49.994;8.660;2022-12-18T01:42:03;101504.84;;;-10.93;91.09
58644;BME280;44411;49.994;8.660;2022-12-18T01:44:54;101513.97;;;-10.86;91.30
58644;BME280;44411;49.994;8.660;2022-12-18T01:50:21;101507.59;;;-10.94;91.29
58644;BME280;44411;49.994;8.660;2022-12-18T01:52:54;101496.44;;;-10.98;91.36
58644;BME280;44411;49.994;8.660;2022-12-18T01:55:23;101512.84;;;-10.94;91.28
58644;BME280;44411;49.994;8.660;2022-12-18T01:57:52;101510.13;;;-10.93;90.67
58644;BME280;44411;49.994;8.660;2022-12-18T02:00:20;101503.38;;;-10.97;91.16
58644;BME280;44411;49.994;8.660;2022-12-18T02:02:46;101503.38;;;-10.97;91.14
58644;BME280;44411;49.994;8.660;2022-12-18T02:05:15;101499.06;;;-10.98;90.97
58644;BME280;44411;49.994;8.660;2022-12-18T02:13:32;101494.75;;;-10.99;91.40
58644;BME280;44411;49.994;8.660;2022-12-18T02:18:38;101492.59;;;-11.05;91.68
58644;BME280;44411;49.994;8.660;2022-12-18T02:23:57;101499.06;;;-10.98;91.88
58644;BME280;44411;49.994;8.660;2022-12-18T02:26:35;101495.44;;;-11.08;91.34
58644;BME280;44411;49.994;8.660;2022-12-18T02:29:10;101498.44;;;-11.13;90.83
58644;BME280;44411;49.994;8.660;2022-12-18T02:31:42;101481.16;;;-11.17;91.44
58644;BME280;44411;49.994;8.660;2022-12-18T02:34:09;101481.31;;;-11.07;91.17
58644;BME280;44411;49.994;8.660;2022-12-18T02:36:37;101481.06;;;-11.04;91.06
58644;BME280;44411;49.994;8.660;2022-12-18T02:39:04;101476.88;;;-11.07;91.12
58644;BME280;44411;49.994;8.660;2022-12-18T02:41:30;101474.56;;;-11.11;91.29
58644;BME280;44411;49.994;8.660;2022-12-18T02:44:01;101471.22;;;-11.13;91.49
58644;BME280;44411;49.994;8.660;2022-12-18T02:46:33;101467.88;;;-11.15;91.12
58644;BME280;44411;49.994;8.660;2022-12-18T02:57:35;101469.44;;;-11.13;90.83
58644;BME280;44411;49.994;8.660;2022-12-18T03:00:24;101464.50;;;-11.17;90.76
58644;BME280;44411;49.994;8.660;2022-12-18T03:03:06;101489.31;;;-11.20;90.72
58644;BME280;44411;49.994;8.660;2022-12-18T03:05:42;101474.56;;;-11.23;91.05
58644;BME280;44411;49.994;8.660;2022-12-18T03:08:12;101483.53;;;-11.25;90.82
58644;BME280;44411;49.994;8.660;2022-12-18T03:10:51;101504.00;;;-11.29;90.90
58644;BME280;44411;49.994;8.660;2022-12-18T03:13:24;101513.56;;;-11.28;90.95
58644;BME280;44411;49.994;8.660;2022-12-18T03:15:55;101507.97;;;-11.23;90.97
58644;BME280;44411;49.994;8.660;2022-12-18T03:18:27;101500.16;;;-11.25;91.17
58644;BME280;44411;49.994;8.660;2022-12-18T03:20:57;101503.78;;;-11.26;91.45
58644;BME280;44411;49.994;8.660;2022-12-18T03:23:27;101501.63;;;-11.21;91.34
58644;BME280;44411;49.994;8.660;2022-12-18T03:25:54;101491.34;;;-11.24;90.99
58644;BME280;44411;49.994;8.660;2022-12-18T03:28:22;101500.16;;;-11.25;91.33
58644;BME280;44411;49.994;8.660;2022-12-18T03:30:50;101499.75;;;-11.18;90.78
58644;BME280;44411;49.994;8.660;2022-12-18T03:33:30;101499.75;;;-11.18;90.68
58644;BME280;44411;49.994;8.660;2022-12-18T03:35:57;101485.56;;;-11.29;90.94
58644;BME280;44411;49.994;8.660;2022-12-18T03:38:23;101490.59;;;-11.26;91.09
58644;BME280;44411;49.994;8.660;2022-12-18T03:41:40;101491.66;;;-11.28;91.37
58644;BME280;44411;49.994;8.660;2022-12-18T03:44:06;101484.84;;;-11.31;90.99
58644;BME280;44411;49.994;8.660;2022-12-18T03:50:16;101477.88;;;-11.32;90.89
58644;BME280;44411;49.994;8.660;2022-12-18T03:52:26;101469.03;;;-11.31;91.43
58644;BME280;44411;49.994;8.660;2022-12-18T03:54:54;101465.94;;;-11.25;91.37
58644;BME280;44411;49.994;8.660;2022-12-18T03:57:25;101456.13;;;-11.11;91.91
58644;BME280;44411;49.994;8.660;2022-12-18T03:59:55;101466.34;;;-11.07;91.28
58644;BME280;44411;49.994;8.660;2022-12-18T04:02:22;101469.84;;;-10.95;91.40
58644;BME280;44411;49.994;8.660;2022-12-18T04:04:55;101476.56;;;-10.91;91.09
58644;BME280;44411;49.994;8.660;2022-12-18T04:07:22;101475.97;;;-10.94;91.41
58644;BME280;44411;49.994;8.660;2022-12-18T04:09:48;101471.75;;;-10.97;91.22
58644;BME280;44411;49.994;8.660;2022-12-18T04:12:16;101487.56;;;-10.97;91.35
58644;BME280;44411;49.994;8.660;2022-12-18T04:14:41;101484.81;;;-10.95;91.52
58644;BME280;44411;49.994;8.660;2022-12-18T04:17:06;101479.91;;;-11.00;91.39
58644;BME280;44411;49.994;8.660;2022-12-18T04:19:32;101470.91;;;-10.97;91.38
58644;BME280;44411;49.994;8.660;2022-12-18T04:21:57;101471.75;;;-10.97;91.70
58644;BME280;44411;49.994;8.660;2022-12-18T04:24:22;101471.75;;;-10.97;91.81
58644;BME280;44411;49.994;8.660;2022-12-18T04:26:47;101471.75;;;-10.97;91.27
58644;BME280;44411;49.994;8.660;2022-12-18T04:29:13;101468.38;;;-10.99;90.99
58644;BME280;44411;49.994;8.660;2022-12-18T04:31:38;101463.13;;;-10.99;91.74
58644;BME280;44411;49.994;8.660;2022-12-18T04:34:04;101468.28;;;-10.97;91.81
58644;BME280;44411;49.994;8.660;2022-12-18T04:36:29;101469.84;;;-10.95;91.63
58644;BME280;44411;49.994;8.660;2022-12-18T04:38:55;101467.22;;;-10.95;91.33
58644;BME280;44411;49.994;8.660;2022-12-18T04:41:20;101466.94;;;-11.03;90.88
58644;BME280;44411;49.994;8.660;2022-12-18T04:43:46;101463.59;;;-11.05;91.30
58644;BME280;44411;49.994;8.660;2022-12-18T04:46:11;101466.13;;;-11.04;90.78
58644;BME280;44411;49.994;8.660;2022-12-18T04:48:37;101470.31;;;-11.01;90.85
58644;BME280;44411;49.994;8.660;2022-12-18T04:51:03;101461.91;;;-11.06;90.66
58644;BME280;44411;49.994;8.660;2022-12-18T04:53:29;101464.28;;;-11.14;91.29
58644;BME280;44411;49.994;8.660;2022-12-18T04:56:10;101468.59;;;-11.13;91.13
58644;BME280;44411;49.994;8.660;2022-12-18T04:58:36;101478.66;;;-11.18;91.20
58644;BME280;44411;49.994;8.660;2022-12-18T05:01:02;101471.69;;;-11.20;91.11
58644;BME280;44411;49.994;8.660;2022-12-18T05:03:28;101484.97;;;-11.21;91.29
58644;BME280;44411;49.994;8.660;2022-12-18T05:05:53;101482.00;;;-11.16;90.83
58644;BME280;44411;49.994;8.660;2022-12-18T05:08:19;101485.09;;;-11.23;90.92
58644;BME280;44411;49.994;8.660;2022-12-18T05:10:44;101483.88;;;-11.30;90.45
58644;BME280;44411;49.994;8.660;2022-12-18T05:13:10;101476.94;;;-11.31;91.01
58644;BME280;44411;49.994;8.660;2022-12-18T05:15:35;101487.09;;;-11.26;91.18
58644;BME280;44411;49.994;8.660;2022-12-18T05:18:01;101486.28;;;-11.27;90.76
58644;BME280;44411;49.994;8.660;2022-12-18T05:20:27;101482.19;;;-11.31;91.19
58644;BME280;44411;49.994;8.660;2022-12-18T05:22:53;101484.13;;;-11.33;90.85
58644;BME280;44411;49.994;8.660;2022-12-18T05:25:19;101493.69;;;-11.32;90.99
58644;BME280;44411;49.994;8.660;2022-12-18T05:27:45;101493.69;;;-11.32;91.83
58644;BME280;44411;49.994;8.660;2022-12-18T05:30:11;101489.03;;;-11.28;90.91
58644;BME280;44411;49.994;8.660;2022-12-18T05:32:37;101497.03;;;-11.30;90.88
58644;BME280;44411;49.994;8.660;2022-12-18T05:35:04;101489.84;;;-11.28;90.96
58644;BME280;44411;49.994;8.660;2022-12-18T05:37:30;101493.69;;;-11.32;91.18
58644;BME280;44411;49.994;8.660;2022-12-18T05:39:55;101489.50;;;-11.34;91.13
58644;BME280;44411;49.994;8.660;2022-12-18T05:42:20;101489.03;;;-11.28;91.74
58644;BME280;44411;49.994;8.660;2022-12-18T05:44:45;101484.84;;;-11.31;90.94
58644;BME280;44411;49.994;8.660;2022-12-18T05:47:11;101482.31;;;-11.32;91.33
58644;BME280;44411;49.994;8.660;2022-12-18T05:49:36;101486.75;;;-11.33;91.23
58644;BME280;44411;49.994;8.660;2022-12-18T05:52:01;101474.53;;;-11.34;91.09
58644;BME280;44411;49.994;8.660;2022-12-18T05:54:27;101476.22;;;-11.33;91.46
58644;BME280;44411;49.994;8.660;2022-12-18T05:56:53;101476.44;;;-11.36;91.21
58644;BME280;44411;49.994;8.660;2022-12-18T05:59:19;101476.66;;;-11.39;91.50
58644;BME280;44411;49.994;8.660;2022-12-18T06:01:44;101477.50;;;-11.38;91.90
58644;BME280;44411;49.994;8.660;2022-12-18T06:04:09;101487.19;;;-11.39;91.28
58644;BME280;44411;49.994;8.660;2022-12-18T06:06:34;101473.28;;;-11.41;91.22
58644;BME280;44411;49.994;8.660;2022-12-18T06:09:00;101480.88;;;-11.36;91.90
58644;BME280;44411;49.994;8.660;2022-12-18T06:11:27;101485.88;;;-11.33;91.76
58644;BME280;44411;49.994;8.660;2022-12-18T06:13:53;101481.59;;;-11.34;91.19
58644;BME280;44411;49.994;8.660;2022-12-18T06:16:19;101481.47;;;-11.33;90.92
58644;BME280;44411;49.994;8.660;2022-12-18T06:18:45;101486.00;;;-11.35;91.24
58644;BME280;44411;49.994;8.660;2022-12-18T06:21:11;101485.28;;;-11.37;90.92
58644;BME280;44411;49.994;8.660;2022-12-18T06:23:36;101485.06;;;-11.34;91.49
58644;BME280;44411;49.994;8.660;2022-12-18T06:26:06;101499.16;;;-11.35;91.23
58644;BME280;44411;49.994;8.660;2022-12-18T06:28:32;101506.13;;;-11.34;91.15
58644;BME280;44411;49.994;8.660;2022-12-18T06:30:57;101502.56;;;-11.33;91.33
58644;BME280;44411;49.994;8.660;2022-12-18T06:33:26;101507.22;;;-11.36;90.93
58644;BME280;44411;49.994;8.660;2022-12-18T06:35:52;101516.03;;;-11.37;91.08
58644;BME280;44411;49.994;8.660;2022-12-18T06:38:17;101515.22;;;-11.38;91.34
58644;BME280;44411;49.994;8.660;2022-12-18T06:40:42;101522.88;;;-11.35;90.68
58644;BME280;44411;49.994;8.660;2022-12-18T06:43:08;101520.31;;;-11.24;90.93
58644;BME280;44411;49.994;8.660;2022-12-18T06:45:33;101518.34;;;-11.33;90.89
58644;BME280;44411;49.994;8.660;2022-12-18T06:47:59;101523.63;;;-11.33;90.55
58644;BME280;44411;49.994;8.660;2022-12-18T06:50:24;101521.00;;;-11.33;90.74
58644;BME280;44411;49.994;8.660;2022-12-18T06:52:49;101515.31;;;-11.40;90.61
58644;BME280;44411;49.994;8.660;2022-12-18T06:55:14;101525.50;;;-11.35;90.54
58644;BME280;44411;49.994;8.660;2022-12-18T06:57:40;101527.41;;;-11.37;90.71
58644;BME280;44411;49.994;8.660;2022-12-18T07:00:06;101525.97;;;-11.41;90.71
58644;BME280;44411;49.994;8.660;2022-12-18T07:02:32;101520.19;;;-11.46;90.79
58644;BME280;44411;49.994;8.660;2022-12-18T07:04:57;101520.91;;;-11.44;90.97
58644;BME280;44411;49.994;8.660;2022-12-18T07:07:22;101525.13;;;-11.42;90.92
58644;BME280;44411;49.994;8.660;2022-12-18T07:09:51;101520.47;;;-11.38;90.60
58644;BME280;44411;49.994;8.660;2022-12-18T07:12:16;101526.59;;;-11.37;90.79
58644;BME280;44411;49.994;8.660;2022-12-18T07:14:42;101522.88;;;-11.35;90.74
58644;BME280;44411;49.994;8.660;2022-12-18T07:17:07;101524.09;;;-11.28;90.68
58644;BME280;44411;49.994;8.660;2022-12-18T07:19:33;101532.00;;;-11.28;90.70
58644;BME280;44411;49.994;8.660;2022-12-18T07:21:58;101533.47;;;-11.24;90.33
58644;BME280;44411;49.994;8.660;2022-12-18T07:24:23;101543.78;;;-11.21;90.72
58644;BME280;44411;49.994;8.660;2022-12-18T07:26:49;101531.56;;;-11.22;90.17
58644;BME280;44411;49.994;8.660;2022-12-18T07:29:14;101521.44;;;-11.15;90.20
58644;BME280;44411;49.994;8.660;2022-12-18T07:31:39;101527.97;;;-11.21;90.22
58644;BME280;44411;49.994;8.660;2022-12-18T07:34:05;101527.53;;;-11.14;91.02
58644;BME280;44411;49.994;8.660;2022-12-18T07:36:30;101523.91;;;-11.13;90.72
58644;BME280;44411;49.994;8.660;2022-12-18T07:38:55;101512.22;;;-11.09;90.64
58644;BME280;44411;49.994;8.660;2022-12-18T07:41:21;101510.63;;;-11.12;90.42
58644;BME280;44411;49.994;8.660;2022-12-18T07:43:47;101524.44;;;-11.08;91.01
58644;BME280;44411;49.994;8.660;2022-12-18T07:46:14;101520.59;;;-11.04;90.47
58644;BME280;44411;49.994;8.660;2022-12-18T07:48:40;101521.34;;;-11.02;91.41
58644;BME280;44411;49.994;8.660;2022-12-18T07:51:07;101521.97;;;-10.98;90.66
58644;BME280;44411;49.994;8.660;2022-12-18T07:53:33;101527.38;;;-10.89;90.37
58644;BME280;44411;49.994;8.660;2022-12-18T07:56:02;101518.75;;;-10.79;90.94
58644;BME280;44411;49.994;8.660;2022-12-18T07:58:28;101517.13;;;-10.69;90.83
58644;BME280;44411;49.994;8.660;2022-12-18T08:00:54;101523.59;;;-10.62;90.84
58644;BME280;44411;49.994;8.660;2022-12-18T08:03:19;101523.13;;;-10.56;91.12
58644;BME280;44411;49.994;8.660;2022-12-18T08:05:45;101519.16;;;-10.50;91.04
58644;BME280;44411;49.994;8.660;2022-12-18T08:08:10;101530.31;;;-10.35;91.87
58644;BME280;44411;49.994;8.660;2022-12-18T08:10:35;101536.06;;;-10.30;91.25
58644;BME280;44411;49.994;8.660;2022-12-18T08:13:02;101533.31;;;-10.17;91.92
58644;BME280;44411;49.994;8.660;2022-12-18T08:15:27;101531.38;;;-10.15;91.60
58644;BME280;44411;49.994;8.660;2022-12-18T08:17:56;101540.03;;;-9.91;91.75
58644;BME280;44411;49.994;8.660;2022-12-18T08:20:21;101540.13;;;-9.81;91.37
58644;BME280;44411;49.994;8.660;2022-12-18T08:22:46;101540.47;;;-9.74;91.81
58644;BME280;44411;49.994;8.660;2022-12-18T08:25:12;101548.28;;;-9.73;90.15
58644;BME280;44411;49.994;8.660;2022-12-18T08:27:37;101549.84;;;-10.04;89.50
58644;BME280;44411;49.994;8.660;2022-12-18T08:30:03;101557.19;;;-9.96;89.37
58644;BME280;44411;49.994;8.660;2022-12-18T08:32:29;101542.28;;;-9.86;89.89
58644;BME280;44411;49.994;8.660;2022-12-18T08:34:54;101540.84;;;-9.90;90.64
58644;BME280;44411;49.994;8.660;2022-12-18T08:37:20;101543.94;;;-9.74;90.67
58644;BME280;44411;49.994;8.660;2022-12-18T08:39:45;101539.66;;;-9.75;90.94
58644;BME280;44411;49.994;8.660;2022-12-18T08:42:10;101540.22;;;-9.60;91.11
58644;BME280;44411;49.994;8.660;2022-12-18T08:44:54;101534.31;;;-9.52;92.13
58644;BME280;44411;49.994;8.660;2022-12-18T08:47:20;101528.28;;;-9.43;91.83
58644;BME280;44411;49.994;8.660;2022-12-18T08:49:45;101519.75;;;-9.14;92.42
58644;BME280;44411;49.994;8.660;2022-12-18T08:52:10;101510.88;;;-8.92;92.31
58644;BME280;44411;49.994;8.660;2022-12-18T08:54:36;101502.28;;;-8.84;91.97
58644;BME280;44411;49.994;8.660;2022-12-18T08:57:01;101498.63;;;-8.72;92.33
58644;BME280;44411;49.994;8.660;2022-12-18T08:59:28;101496.34;;;-8.56;92.04
58644;BME280;44411;49.994;8.660;2022-12-18T09:01:55;101497.94;;;-8.34;91.94
58644;BME280;44411;49.994;8.660;2022-12-18T09:04:21;101512.34;;;-8.26;91.05
58644;BME280;44411;49.994;8.660;2022-12-18T09:06:46;101510.03;;;-8.10;90.82
58644;BME280;44411;49.994;8.660;2022-12-18T09:09:11;101511.75;;;-7.99;90.93
58644;BME280;44411;49.994;8.660;2022-12-18T09:11:37;101511.19;;;-7.93;91.02
58644;BME280;44411;49.994;8.660;2022-12-18T09:14:03;101510.41;;;-7.84;90.96
58644;BME280;44411;49.994;8.660;2022-12-18T09:16:29;101510.00;;;-7.79;90.64
58644;BME280;44411;49.994;8.660;2022-12-18T09:18:55;101518.50;;;-7.76;90.68
58644;BME280;44411;49.994;8.660;2022-12-18T09:21:25;101529.84;;;-7.64;90.41
58644;BME280;44411;49.994;8.660;2022-12-18T09:23:52;101533.19;;;-7.62;90.68
58644;BME280;44411;49.994;8.660;2022-12-18T09:26:18;101535.72;;;-7.60;90.20
58644;BME280;44411;49.994;8.660;2022-12-18T09:28:43;101532.63;;;-7.46;90.72
58644;BME280;44411;49.994;8.660;2022-12-18T09:31:11;101537.84;;;-7.35;90.20
58644;BME280;44411;49.994;8.660;2022-12-18T09:33:41;101551.38;;;-7.38;89.33
58644;BME280;44411;49.994;8.660;2022-12-18T09:36:07;101534.91;;;-7.31;89.96
58644;BME280;44411;49.994;8.660;2022-12-18T09:38:34;101523.88;;;-7.17;90.90
58644;BME280;44411;49.994;8.660;2022-12-18T09:41:35;101533.53;;;-7.16;89.47
58644;BME280;44411;49.994;8.660;2022-12-18T09:47:11;101535.06;;;-6.94;89.28
58644;BME280;44411;49.994;8.660;2022-12-18T09:49:43;101536.72;;;-6.83;88.31
58644;BME280;44411;49.994;8.660;2022-12-18T09:52:16;101538.81;;;-6.67;88.74
58644;BME280;44411;49.994;8.660;2022-12-18T09:54:45;101545.06;;;-6.59;88.58
58644;BME280;44411;49.994;8.660;2022-12-18T09:57:23;101537.81;;;-6.57;87.41
58644;BME280;44411;49.994;8.660;2022-12-18T10:00:03;101531.78;;;-6.59;87.65
58644;BME280;44411;49.994;8.660;2022-12-18T10:02:30;101537.66;;;-6.45;88.47
58644;BME280;44411;49.994;8.660;2022-12-18T10:05:06;101539.84;;;-6.41;88.09
58644;BME280;44411;49.994;8.660;2022-12-18T10:07:47;101541.53;;;-6.49;87.73
58644;BME280;44411;49.994;8.660;2022-12-18T10:13:22;101553.56;;;-6.45;87.05
58644;BME280;44411;49.994;8.660;2022-12-18T10:15:54;101552.56;;;-6.34;87.41
58644;BME280;44411;49.994;8.660;2022-12-18T10:21:09;101549.69;;;-6.13;87.77
58644;BME280;44411;49.994;8.660;2022-12-18T10:26:10;101537.00;;;-5.92;88.00
58644;BME280;44411;49.994;8.660;2022-12-18T10:28:37;101530.25;;;-5.86;87.11
58644;BME280;44411;49.994;8.660;2022-12-18T10:31:12;101526.72;;;-5.77;86.68
58644;BME280;44411;49.994;8.660;2022-12-18T10:33:39;101522.47;;;-5.70;86.79
58644;BME280;44411;49.994;8.660;2022-12-18T10:36:04;101525.53;;;-5.65;85.89
58644;BME280;44411;49.994;8.660;2022-12-18T10:38:32;101534.19;;;-5.63;86.12
58644;BME280;44411;49.994;8.660;2022-12-18T10:41:06;101526.34;;;-5.64;85.72
58644;BME280;44411;49.994;8.660;2022-12-18T10:43:38;101540.53;;;-5.73;86.00
58644;BME280;44411;49.994;8.660;2022-12-18T10:51:05;101538.69;;;-5.63;86.29
58644;BME280;44411;49.994;8.660;2022-12-18T10:53:33;101547.75;;;-5.84;84.17
58644;BME280;44411;49.994;8.660;2022-12-18T10:55:59;101536.50;;;-5.78;83.89
58644;BME280;44411;49.994;8.660;2022-12-18T11:01:05;101529.91;;;-5.73;84.21
58644;BME280;44411;49.994;8.660;2022-12-18T11:06:14;101533.91;;;-5.60;85.02
58644;BME280;44411;49.994;8.660;2022-12-18T11:08:42;101523.81;;;-5.56;85.01
58644;BME280;44411;49.994;8.660;2022-12-18T11:11:21;101524.91;;;-5.59;83.68
58644;BME280;44411;49.994;8.660;2022-12-18T11:13:58;101539.31;;;-5.33;84.46
58644;BME280;44411;49.994;8.660;2022-12-18T11:16:26;101524.91;;;-5.13;84.84
58644;BME280;44411;49.994;8.660;2022-12-18T11:18:52;101526.19;;;-5.17;82.87
58644;BME280;44411;49.994;8.660;2022-12-18T11:21:18;101519.25;;;-4.92;84.07
58644;BME280;44411;49.994;8.660;2022-12-18T11:23:50;101520.06;;;-4.91;83.44
58644;BME280;44411;49.994;8.660;2022-12-18T11:26:16;101516.59;;;-4.92;82.98
58644;BME280;44411;49.994;8.660;2022-12-18T11:29:10;101525.19;;;-4.80;83.86
58644;BME280;44411;49.994;8.660;2022-12-18T11:31:40;101522.75;;;-4.91;82.26
58644;BME280;44411;49.994;8.660;2022-12-18T11:34:19;101516.50;;;-4.82;82.87
58644;BME280;44411;49.994;8.660;2022-12-18T11:36:47;101499.34;;;-4.61;82.38
58644;BME280;44411;49.994;8.660;2022-12-18T11:40:01;101503.56;;;-4.77;81.79
58644;BME280;44411;49.994;8.660;2022-12-18T11:42:43;101500.56;;;-4.56;81.85
58644;BME280;44411;49.994;8.660;2022-12-18T11:47:58;101509.25;;;-4.19;82.27
58644;BME280;44411;49.994;8.660;2022-12-18T11:50:53;101500.53;;;-4.30;80.48
58644;BME280;44411;49.994;8.660;2022-12-18T11:53:18;101508.94;;;-4.43;80.77
58644;BME280;44411;49.994;8.660;2022-12-18T11:58:58;101488.44;;;-4.50;80.38
58644;BME280;44411;49.994;8.660;2022-12-18T12:07:54;101499.19;;;-4.34;80.77
58644;BME280;44411;49.994;8.660;2022-12-18T12:10:51;101494.53;;;-4.32;80.64
58644;BME280;44411;49.994;8.660;2022-12-18T12:13:30;101509.53;;;-4.31;79.70
58644;BME280;44411;49.994;8.660;2022-12-18T12:16:18;101504.47;;;-4.42;80.68
58644;BME280;44411;49.994;8.660;2022-12-18T12:22:03;101497.31;;;-4.41;80.70
58644;BME280;44411;49.994;8.660;2022-12-18T12:30:03;101475.84;;;-4.40;80.89
58644;BME280;44411;49.994;8.660;2022-12-18T12:35:37;101487.25;;;-4.21;81.44
58644;BME280;44411;49.994;8.660;2022-12-18T12:38:18;101480.41;;;-4.24;80.72
58644;BME280;44411;49.994;8.660;2022-12-18T12:40:58;101472.38;;;-4.32;80.10
58644;BME280;44411;49.994;8.660;2022-12-18T12:43:43;101474.75;;;-4.29;80.96
58644;BME280;44411;49.994;8.660;2022-12-18T12:46:11;101474.03;;;-4.66;81.07
58644;BME280;44411;49.994;8.660;2022-12-18T12:48:43;101469.72;;;-4.58;82.20
58644;BME280;44411;49.994;8.660;2022-12-18T12:51:32;101462.63;;;-4.50;82.27
58644;BME280;44411;49.994;8.660;2022-12-18T12:54:00;101457.19;;;-4.40;82.25
58644;BME280;44411;49.994;8.660;2022-12-18T12:56:44;101457.00;;;-4.47;81.44
58644;BME280;44411;49.994;8.660;2022-12-18T12:59:17;101455.66;;;-4.51;82.14
58644;BME280;44411;49.994;8.660;2022-12-18T13:07:38;101466.75;;;-4.55;81.65
58644;BME280;44411;49.994;8.660;2022-12-18T13:13:07;101467.84;;;-4.40;82.08
58644;BME280;44411;49.994;8.660;2022-12-18T13:15:43;101462.91;;;-4.61;81.39
58644;BME280;44411;49.994;8.660;2022-12-18T13:20:42;101447.75;;;-4.60;82.04
58644;BME280;44411;49.994;8.660;2022-12-18T13:25:50;101444.47;;;-4.54;81.96
58644;BME280;44411;49.994;8.660;2022-12-18T13:31:14;101446.63;;;-4.50;83.01
58644;BME280;44411;49.994;8.660;2022-12-18T13:33:43;101434.78;;;-4.55;82.58
58644;BME280;44411;49.994;8.660;2022-12-18T13:36:15;101405.03;;;-4.51;82.79
58644;BME280;44411;49.994;8.660;2022-12-18T13:38:42;101416.38;;;-4.49;82.63
58644;BME280;44411;49.994;8.660;2022-12-18T13:43:50;101412.81;;;-4.57;83.25
58644;BME280;44411;49.994;8.660;2022-12-18T13:46:42;101422.81;;;-4.59;83.09
58644;BME280;44411;49.994;8.660;2022-12-18T13:51:46;101413.13;;;-4.60;83.75
58644;BME280;44411;49.994;8.660;2022-12-18T13:54:34;101412.59;;;-4.64;83.99
58644;BME280;44411;49.994;8.660;2022-12-18T13:57:01;101403.34;;;-4.60;82.97
58644;BME280;44411;49.994;8.660;2022-12-18T13:59:34;101407.94;;;-4.70;83.23
58644;BME280;44411;49.994;8.660;2022-12-18T14:02:09;101403.28;;;-4.68;83.45
58644;BME280;44411;49.994;8.660;2022-12-18T14:04:37;101395.59;;;-4.71;83.40
58644;BME280;44411;49.994;8.660;2022-12-18T14:07:07;101394.09;;;-4.74;84.11
58644;BME280;44411;49.994;8.660;2022-12-18T14:09:39;101391.75;;;-4.77;84.57
58644;BME280;44411;49.994;8.660;2022-12-18T14:12:06;101390.91;;;-4.77;84.46
58644;BME280;44411;49.994;8.660;2022-12-18T14:14:51;101397.22;;;-4.78;84.36
58644;BME280;44411;49.994;8.660;2022-12-18T14:17:18;101387.72;;;-4.81;84.15
58644;BME280;44411;49.994;8.660;2022-12-18T14:19:49;101386.22;;;-4.84;84.45
58644;BME280;44411;49.994;8.660;2022-12-18T14:22:25;101383.72;;;-4.85;84.30
58644;BME280;44411;49.994;8.660;2022-12-18T14:27:53;101393.84;;;-4.89;84.77
58644;BME280;44411;49.994;8.660;2022-12-18T14:30:37;101394.16;;;-4.92;85.09
58644;BME280;44411;49.994;8.660;2022-12-18T14:33:13;101400.00;;;-4.88;85.03